sensor_id;sensor_type;location;lat;lon;timestamp;P1;durP1;ratioP1;P2;durP2;ratioP2
44272;SDS011;29964;17.182;-96.766;2023-03-05T00:00:40;5.55;;;1.50;;
44272;SDS011;29964;17.182;-96.766;2023-03-05T00:03:06;2.05;;;1.42;;
44272;SDS011;29964;17.182;-96.766;2023-03-05T00:05:33;3.33;;;1.85;;
44272;SDS011;29964;17.182;-96.766;2023-03-05T00:08:00;2.17;;;1.50;;
44272;SDS011;29964;17.182;-96.766;2023-03-05T00:10:26;2.58;;;1.60;;
44272;SDS011;29964;17.182;-96.766;2023-03-05T00:12:53;4.97;;;2.08;;
44272;SDS011;29964;17.182;-96.766;2023-03-05T00:15:20;1.95;;;1.35;;
44272;SDS011;29964;17.182;-96.766;2023-03-05T00:17:46;3.45;;;1.55;;
44272;SDS011;29964;17.182;-96.766;2023-03-05T00:20:13;4.32;;;1.65;;
44272;SDS011;29964;17.182;-96.766;2023-03-05T00:22:40;11.95;;;1.63;;
44272;SDS011;29964;17.182;-96.766;2023-03-05T00:25:07;8.32;;;1.95;;
44272;SDS011;29964;17.182;-96.766;2023-03-05T00:27:33;3.28;;;2.10;;
44272;SDS011;29964;17.182;-96.766;2023-03-05T00:30:00;6.75;;;2.13;;
44272;SDS011;29964;17.182;-96.766;2023-03-05T00:32:27;2.83;;;1.90;;
44272;SDS011;29964;17.182;-96.766;2023-03-05T00:34:53;5.22;;;1.98;;
44272;SDS011;29964;17.182;-96.766;2023-03-05T00:37:20;1.95;;;1.35;;
44272;SDS011;29964;17.182;-96.766;2023-03-05T00:39:47;17.83;;;2.67;;
44272;SDS011;29964;17.182;-96.766;2023-03-05T00:42:13;2.42;;;1.50;;
44272;SDS011;29964;17.182;-96.766;2023-03-05T00:44:40;3.13;;;1.40;;
44272;SDS011;29964;17.182;-96.766;2023-03-05T00:47:07;2.85;;;1.80;;
44272;SDS011;29964;17.182;-96.766;2023-03-05T00:49:33;3.70;;;2.17;;
44272;SDS011;29964;17.182;-96.766;2023-03-05T00:52:00;4.60;;;2.00;;
44272;SDS011;29964;17.182;-96.766;2023-03-05T00:54:27;2.90;;;1.90;;
44272;SDS011;29964;17.182;-96.766;2023-03-05T00:56:53;4.97;;;1.67;;
44272;SDS011;29964;17.182;-96.766;2023-03-05T00:59:20;4.50;;;2.25;;
44272;SDS011;29964;17.182;-96.766;2023-03-05T01:01:47;4.95;;;1.95;;
44272;SDS011;29964;17.182;-96.766;2023-03-05T01:04:13;5.95;;;2.35;;
44272;SDS011;29964;17.182;-96.766;2023-03-05T01:06:40;4.18;;;1.77;;
44272;SDS011;29964;17.182;-96.766;2023-03-05T01:09:10;7.45;;;2.30;;
44272;SDS011;29964;17.182;-96.766;2023-03-05T01:11:37;2.67;;;1.63;;
44272;SDS011;29964;17.182;-96.766;2023-03-05T01:14:04;4.95;;;2.03;;
44272;SDS011;29964;17.182;-96.766;2023-03-05T01:16:31;3.75;;;2.08;;
44272;SDS011;29964;17.182;-96.766;2023-03-05T01:18:57;4.05;;;2.47;;
44272;SDS011;29964;17.182;-96.766;2023-03-05T01:21:24;2.22;;;1.60;;
44272;SDS011;29964;17.182;-96.766;2023-03-05T01:23:51;4.07;;;1.92;;
44272;SDS011;29964;17.182;-96.766;2023-03-05T01:26:18;2.33;;;1.60;;
44272;SDS011;29964;17.182;-96.766;2023-03-05T01:28:44;3.03;;;1.50;;
44272;SDS011;29964;17.182;-96.766;2023-03-05T01:31:11;3.15;;;1.85;;
44272;SDS011;29964;17.182;-96.766;2023-03-05T01:33:38;3.30;;;1.42;;
44272;SDS011;29964;17.182;-96.766;2023-03-05T01:36:05;3.80;;;1.95;;
44272;SDS011;29964;17.182;-96.766;2023-03-05T01:38:32;2.67;;;1.75;;
44272;SDS011;29964;17.182;-96.766;2023-03-05T01:40:59;4.63;;;1.92;;
44272;SDS011;29964;17.182;-96.766;2023-03-05T01:43:26;11.30;;;2.20;;
44272;SDS011;29964;17.182;-96.766;2023-03-05T01:48:44;2.80;;;1.90;;
44272;SDS011;29964;17.182;-96.766;2023-03-05T01:51:13;1.93;;;1.53;;
44272;SDS011;29964;17.182;-96.766;2023-03-05T01:53:40;5.33;;;1.27;;
44272;SDS011;29964;17.182;-96.766;2023-03-05T01:56:07;2.60;;;1.63;;
44272;SDS011;29964;17.182;-96.766;2023-03-05T01:58:34;8.93;;;1.93;;
44272;SDS011;29964;17.182;-96.766;2023-03-05T02:01:04;2.93;;;1.67;;
44272;SDS011;29964;17.182;-96.766;2023-03-05T02:03:30;3.17;;;1.77;;
44272;SDS011;29964;17.182;-96.766;2023-03-05T02:05:58;7.63;;;2.03;;
44272;SDS011;29964;17.182;-96.766;2023-03-05T02:08:24;4.10;;;1.80;;
44272;SDS011;29964;17.182;-96.766;2023-03-05T02:10:51;2.50;;;1.63;;
44272;SDS011;29964;17.182;-96.766;2023-03-05T02:13:24;2.63;;;1.80;;
44272;SDS011;29964;17.182;-96.766;2023-03-05T02:15:53;4.50;;;1.93;;
44272;SDS011;29964;17.182;-96.766;2023-03-05T02:18:20;2.73;;;1.43;;
44272;SDS011;29964;17.182;-96.766;2023-03-05T02:23:17;3.80;;;1.77;;
44272;SDS011;29964;17.182;-96.766;2023-03-05T02:25:44;5.43;;;1.97;;
44272;SDS011;29964;17.182;-96.766;2023-03-05T02:28:14;3.07;;;1.83;;
44272;SDS011;29964;17.182;-96.766;2023-03-05T02:30:41;4.80;;;2.27;;
44272;SDS011;29964;17.182;-96.766;2023-03-05T02:33:08;2.20;;;1.67;;
44272;SDS011;29964;17.182;-96.766;2023-03-05T02:35:35;2.73;;;1.37;;
44272;SDS011;29964;17.182;-96.766;2023-03-05T02:38:09;9.60;;;2.20;;
44272;SDS011;29964;17.182;-96.766;2023-03-05T02:40:36;4.67;;;2.03;;
44272;SDS011;29964;17.182;-96.766;2023-03-05T02:43:02;5.87;;;2.60;;
44272;SDS011;29964;17.182;-96.766;2023-03-05T02:45:29;32.17;;;3.37;;
44272;SDS011;29964;17.182;-96.766;2023-03-05T02:47:56;2.80;;;1.80;;
44272;SDS011;29964;17.182;-96.766;2023-03-05T02:50:22;2.70;;;1.40;;
44272;SDS011;29964;17.182;-96.766;2023-03-05T02:52:50;5.93;;;1.97;;
44272;SDS011;29964;17.182;-96.766;2023-03-05T02:55:16;2.13;;;1.60;;
44272;SDS011;29964;17.182;-96.766;2023-03-05T02:57:43;3.60;;;1.70;;
44272;SDS011;29964;17.182;-96.766;2023-03-05T03:00:10;2.23;;;1.53;;
44272;SDS011;29964;17.182;-96.766;2023-03-05T03:02:37;2.67;;;2.00;;
44272;SDS011;29964;17.182;-96.766;2023-03-05T03:05:04;3.73;;;1.70;;
44272;SDS011;29964;17.182;-96.766;2023-03-05T03:07:31;4.70;;;1.60;;
44272;SDS011;29964;17.182;-96.766;2023-03-05T03:10:00;3.00;;;1.90;;
44272;SDS011;29964;17.182;-96.766;2023-03-05T03:12:26;2.60;;;1.90;;
44272;SDS011;29964;17.182;-96.766;2023-03-05T03:14:53;2.93;;;1.83;;
44272;SDS011;29964;17.182;-96.766;2023-03-05T03:17:20;3.40;;;2.10;;
44272;SDS011;29964;17.182;-96.766;2023-03-05T03:19:47;6.87;;;2.07;;
44272;SDS011;29964;17.182;-96.766;2023-03-05T03:22:14;3.63;;;1.50;;
44272;SDS011;29964;17.182;-96.766;2023-03-05T03:24:41;2.93;;;1.77;;
44272;SDS011;29964;17.182;-96.766;2023-03-05T03:27:08;2.47;;;1.80;;
44272;SDS011;29964;17.182;-96.766;2023-03-05T03:29:35;2.07;;;1.30;;
44272;SDS011;29964;17.182;-96.766;2023-03-05T03:32:02;4.40;;;2.23;;
44272;SDS011;29964;17.182;-96.766;2023-03-05T03:34:29;4.43;;;2.30;;
44272;SDS011;29964;17.182;-96.766;2023-03-05T03:36:56;3.97;;;1.50;;
44272;SDS011;29964;17.182;-96.766;2023-03-05T03:39:22;14.63;;;2.30;;
44272;SDS011;29964;17.182;-96.766;2023-03-05T03:41:50;2.63;;;1.63;;
44272;SDS011;29964;17.182;-96.766;2023-03-05T03:44:21;3.53;;;1.97;;
44272;SDS011;29964;17.182;-96.766;2023-03-05T03:46:48;2.97;;;1.60;;
44272;SDS011;29964;17.182;-96.766;2023-03-05T03:49:16;2.67;;;1.80;;
44272;SDS011;29964;17.182;-96.766;2023-03-05T03:51:44;4.80;;;1.90;;
44272;SDS011;29964;17.182;-96.766;2023-03-05T03:54:12;3.80;;;2.17;;
44272;SDS011;29964;17.182;-96.766;2023-03-05T03:56:38;2.03;;;1.57;;
44272;SDS011;29964;17.182;-96.766;2023-03-05T03:59:05;5.37;;;2.17;;
44272;SDS011;29964;17.182;-96.766;2023-03-05T04:01:32;8.60;;;2.50;;
44272;SDS011;29964;17.182;-96.766;2023-03-05T04:03:59;3.30;;;2.13;;
44272;SDS011;29964;17.182;-96.766;2023-03-05T04:06:25;8.40;;;2.10;;
44272;SDS011;29964;17.182;-96.766;2023-03-05T04:08:52;3.80;;;2.27;;
44272;SDS011;29964;17.182;-96.766;2023-03-05T04:11:19;4.93;;;2.07;;
44272;SDS011;29964;17.182;-96.766;2023-03-05T04:13:46;4.80;;;2.13;;
44272;SDS011;29964;17.182;-96.766;2023-03-05T04:16:13;3.37;;;2.07;;
44272;SDS011;29964;17.182;-96.766;2023-03-05T04:18:40;5.03;;;1.90;;
44272;SDS011;29964;17.182;-96.766;2023-03-05T04:21:07;2.83;;;1.73;;
44272;SDS011;29964;17.182;-96.766;2023-03-05T04:23:34;5.97;;;2.23;;
44272;SDS011;29964;17.182;-96.766;2023-03-05T04:26:01;2.87;;;1.73;;
44272;SDS011;29964;17.182;-96.766;2023-03-05T04:28:27;9.00;;;2.30;;
44272;SDS011;29964;17.182;-96.766;2023-03-05T04:30:54;3.60;;;1.97;;
44272;SDS011;29964;17.182;-96.766;2023-03-05T04:33:21;3.70;;;1.90;;
44272;SDS011;29964;17.182;-96.766;2023-03-05T04:35:48;4.00;;;2.73;;
44272;SDS011;29964;17.182;-96.766;2023-03-05T04:38:15;4.50;;;2.03;;
44272;SDS011;29964;17.182;-96.766;2023-03-05T04:40:41;7.20;;;2.27;;
44272;SDS011;29964;17.182;-96.766;2023-03-05T04:43:08;6.23;;;1.53;;
44272;SDS011;29964;17.182;-96.766;2023-03-05T04:45:35;1.50;;;1.20;;
44272;SDS011;29964;17.182;-96.766;2023-03-05T04:48:04;2.17;;;1.33;;
44272;SDS011;29964;17.182;-96.766;2023-03-05T04:50:31;4.97;;;1.87;;
44272;SDS011;29964;17.182;-96.766;2023-03-05T04:52:57;5.90;;;2.80;;
44272;SDS011;29964;17.182;-96.766;2023-03-05T04:55:25;15.77;;;2.17;;
44272;SDS011;29964;17.182;-96.766;2023-03-05T04:57:52;2.03;;;1.17;;
44272;SDS011;29964;17.182;-96.766;2023-03-05T05:00:19;4.43;;;1.50;;
44272;SDS011;29964;17.182;-96.766;2023-03-05T05:02:47;3.03;;;1.70;;
44272;SDS011;29964;17.182;-96.766;2023-03-05T05:05:15;4.77;;;1.70;;
44272;SDS011;29964;17.182;-96.766;2023-03-05T05:07:42;3.27;;;2.03;;
44272;SDS011;29964;17.182;-96.766;2023-03-05T05:10:09;1.33;;;1.00;;
44272;SDS011;29964;17.182;-96.766;2023-03-05T05:12:36;3.87;;;1.37;;
44272;SDS011;29964;17.182;-96.766;2023-03-05T05:15:04;3.00;;;1.90;;
44272;SDS011;29964;17.182;-96.766;2023-03-05T05:17:31;5.80;;;1.90;;
44272;SDS011;29964;17.182;-96.766;2023-03-05T05:19:58;5.87;;;2.40;;
44272;SDS011;29964;17.182;-96.766;2023-03-05T05:22:26;1.80;;;1.30;;
44272;SDS011;29964;17.182;-96.766;2023-03-05T05:24:53;3.00;;;1.40;;
44272;SDS011;29964;17.182;-96.766;2023-03-05T05:27:19;1.03;;;0.90;;
44272;SDS011;29964;17.182;-96.766;2023-03-05T05:29:46;1.23;;;1.03;;
44272;SDS011;29964;17.182;-96.766;2023-03-05T05:32:18;4.83;;;1.83;;
44272;SDS011;29964;17.182;-96.766;2023-03-05T05:34:45;5.20;;;1.50;;
44272;SDS011;29964;17.182;-96.766;2023-03-05T05:37:12;4.83;;;1.40;;
44272;SDS011;29964;17.182;-96.766;2023-03-05T05:39:38;5.03;;;2.40;;
44272;SDS011;29964;17.182;-96.766;2023-03-05T05:42:05;2.17;;;1.50;;
44272;SDS011;29964;17.182;-96.766;2023-03-05T05:44:35;7.43;;;2.53;;
44272;SDS011;29964;17.182;-96.766;2023-03-05T05:47:01;3.20;;;1.90;;
44272;SDS011;29964;17.182;-96.766;2023-03-05T05:49:28;2.13;;;1.50;;
44272;SDS011;29964;17.182;-96.766;2023-03-05T05:51:55;2.07;;;1.67;;
44272;SDS011;29964;17.182;-96.766;2023-03-05T05:54:22;12.00;;;1.80;;
44272;SDS011;29964;17.182;-96.766;2023-03-05T05:56:48;1.93;;;1.50;;
44272;SDS011;29964;17.182;-96.766;2023-03-05T05:59:15;3.63;;;1.87;;
44272;SDS011;29964;17.182;-96.766;2023-03-05T06:01:42;3.33;;;1.60;;
44272;SDS011;29964;17.182;-96.766;2023-03-05T06:04:08;3.93;;;2.00;;
44272;SDS011;29964;17.182;-96.766;2023-03-05T06:06:35;5.83;;;1.73;;
44272;SDS011;29964;17.182;-96.766;2023-03-05T06:09:02;2.00;;;1.30;;
44272;SDS011;29964;17.182;-96.766;2023-03-05T06:11:29;3.27;;;2.37;;
44272;SDS011;29964;17.182;-96.766;2023-03-05T06:13:56;3.07;;;2.33;;
44272;SDS011;29964;17.182;-96.766;2023-03-05T06:16:23;1.57;;;1.33;;
44272;SDS011;29964;17.182;-96.766;2023-03-05T06:18:50;2.03;;;1.30;;
44272;SDS011;29964;17.182;-96.766;2023-03-05T06:21:18;2.47;;;1.43;;
44272;SDS011;29964;17.182;-96.766;2023-03-05T06:23:45;2.23;;;1.47;;
44272;SDS011;29964;17.182;-96.766;2023-03-05T06:26:14;4.67;;;1.77;;
44272;SDS011;29964;17.182;-96.766;2023-03-05T06:28:41;7.60;;;2.47;;
44272;SDS011;29964;17.182;-96.766;2023-03-05T06:31:08;2.50;;;2.00;;
44272;SDS011;29964;17.182;-96.766;2023-03-05T06:33:35;4.57;;;1.97;;
44272;SDS011;29964;17.182;-96.766;2023-03-05T06:36:06;4.37;;;2.20;;
44272;SDS011;29964;17.182;-96.766;2023-03-05T06:38:34;2.53;;;1.67;;
44272;SDS011;29964;17.182;-96.766;2023-03-05T06:41:01;2.63;;;1.93;;
44272;SDS011;29964;17.182;-96.766;2023-03-05T06:43:30;2.67;;;1.47;;
44272;SDS011;29964;17.182;-96.766;2023-03-05T06:46:00;2.53;;;1.37;;
44272;SDS011;29964;17.182;-96.766;2023-03-05T06:48:27;5.83;;;1.93;;
44272;SDS011;29964;17.182;-96.766;2023-03-05T06:50:54;1.40;;;1.10;;
44272;SDS011;29964;17.182;-96.766;2023-03-05T06:53:22;2.83;;;1.90;;
44272;SDS011;29964;17.182;-96.766;2023-03-05T06:55:48;7.17;;;1.80;;
44272;SDS011;29964;17.182;-96.766;2023-03-05T06:58:15;1.73;;;1.37;;
44272;SDS011;29964;17.182;-96.766;2023-03-05T07:00:42;2.40;;;1.40;;
44272;SDS011;29964;17.182;-96.766;2023-03-05T07:03:09;5.30;;;2.77;;
44272;SDS011;29964;17.182;-96.766;2023-03-05T07:05:39;2.50;;;1.40;;
44272;SDS011;29964;17.182;-96.766;2023-03-05T07:08:07;3.30;;;1.50;;
44272;SDS011;29964;17.182;-96.766;2023-03-05T07:10:38;8.80;;;1.87;;
44272;SDS011;29964;17.182;-96.766;2023-03-05T07:13:05;1.43;;;1.27;;
44272;SDS011;29964;17.182;-96.766;2023-03-05T07:15:32;1.83;;;1.53;;
44272;SDS011;29964;17.182;-96.766;2023-03-05T07:17:58;1.80;;;1.10;;
44272;SDS011;29964;17.182;-96.766;2023-03-05T07:20:28;2.40;;;1.10;;
44272;SDS011;29964;17.182;-96.766;2023-03-05T07:22:54;4.37;;;2.13;;
44272;SDS011;29964;17.182;-96.766;2023-03-05T07:25:21;4.57;;;2.00;;
44272;SDS011;29964;17.182;-96.766;2023-03-05T07:27:48;4.63;;;1.97;;
44272;SDS011;29964;17.182;-96.766;2023-03-05T07:30:16;4.20;;;1.97;;
44272;SDS011;29964;17.182;-96.766;2023-03-05T07:32:42;6.23;;;2.13;;
44272;SDS011;29964;17.182;-96.766;2023-03-05T07:35:09;2.57;;;1.60;;
44272;SDS011;29964;17.182;-96.766;2023-03-05T07:37:36;2.53;;;1.67;;
44272;SDS011;29964;17.182;-96.766;2023-03-05T07:40:03;2.00;;;1.43;;
44272;SDS011;29964;17.182;-96.766;2023-03-05T07:42:30;4.33;;;1.40;;
44272;SDS011;29964;17.182;-96.766;2023-03-05T07:44:57;5.07;;;1.50;;
44272;SDS011;29964;17.182;-96.766;2023-03-05T07:47:24;2.30;;;1.53;;
44272;SDS011;29964;17.182;-96.766;2023-03-05T07:49:51;19.10;;;1.93;;
44272;SDS011;29964;17.182;-96.766;2023-03-05T07:52:17;3.93;;;1.50;;
44272;SDS011;29964;17.182;-96.766;2023-03-05T07:54:44;12.33;;;2.53;;
44272;SDS011;29964;17.182;-96.766;2023-03-05T07:57:11;6.47;;;2.27;;
44272;SDS011;29964;17.182;-96.766;2023-03-05T07:59:38;2.17;;;1.37;;
44272;SDS011;29964;17.182;-96.766;2023-03-05T08:02:04;3.13;;;1.50;;
44272;SDS011;29964;17.182;-96.766;2023-03-05T08:04:31;2.33;;;1.63;;
44272;SDS011;29964;17.182;-96.766;2023-03-05T08:06:58;1.57;;;1.27;;
44272;SDS011;29964;17.182;-96.766;2023-03-05T08:09:25;2.90;;;1.73;;
44272;SDS011;29964;17.182;-96.766;2023-03-05T08:11:53;3.00;;;2.03;;
44272;SDS011;29964;17.182;-96.766;2023-03-05T08:14:20;1.57;;;1.37;;
44272;SDS011;29964;17.182;-96.766;2023-03-05T08:16:46;4.50;;;1.77;;
44272;SDS011;29964;17.182;-96.766;2023-03-05T08:19:17;2.50;;;1.93;;
44272;SDS011;29964;17.182;-96.766;2023-03-05T08:21:44;1.70;;;1.17;;
44272;SDS011;29964;17.182;-96.766;2023-03-05T08:24:11;1.73;;;1.37;;
44272;SDS011;29964;17.182;-96.766;2023-03-05T08:26:38;1.50;;;1.00;;
44272;SDS011;29964;17.182;-96.766;2023-03-05T08:29:07;2.03;;;1.30;;
44272;SDS011;29964;17.182;-96.766;2023-03-05T08:31:34;1.23;;;1.03;;
44272;SDS011;29964;17.182;-96.766;2023-03-05T08:34:01;4.53;;;1.77;;
44272;SDS011;29964;17.182;-96.766;2023-03-05T08:36:29;3.83;;;1.67;;
44272;SDS011;29964;17.182;-96.766;2023-03-05T08:38:55;3.70;;;1.13;;
44272;SDS011;29964;17.182;-96.766;2023-03-05T08:41:23;9.77;;;2.13;;
44272;SDS011;29964;17.182;-96.766;2023-03-05T08:43:50;1.80;;;1.10;;
44272;SDS011;29964;17.182;-96.766;2023-03-05T08:46:17;1.63;;;1.20;;
44272;SDS011;29964;17.182;-96.766;2023-03-05T08:48:44;6.67;;;1.90;;
44272;SDS011;29964;17.182;-96.766;2023-03-05T08:51:14;1.83;;;1.40;;
44272;SDS011;29964;17.182;-96.766;2023-03-05T08:53:41;4.37;;;1.93;;
44272;SDS011;29964;17.182;-96.766;2023-03-05T08:56:08;1.77;;;1.10;;
44272;SDS011;29964;17.182;-96.766;2023-03-05T08:58:35;5.30;;;1.90;;
44272;SDS011;29964;17.182;-96.766;2023-03-05T09:01:02;3.50;;;1.93;;
44272;SDS011;29964;17.182;-96.766;2023-03-05T09:03:29;4.03;;;1.70;;
44272;SDS011;29964;17.182;-96.766;2023-03-05T09:06:00;2.13;;;1.43;;
44272;SDS011;29964;17.182;-96.766;2023-03-05T09:08:27;3.67;;;1.80;;
44272;SDS011;29964;17.182;-96.766;2023-03-05T09:10:54;1.13;;;1.03;;
44272;SDS011;29964;17.182;-96.766;2023-03-05T09:13:20;2.23;;;1.60;;
44272;SDS011;29964;17.182;-96.766;2023-03-05T09:15:57;3.20;;;2.10;;
44272;SDS011;29964;17.182;-96.766;2023-03-05T09:18:24;2.97;;;1.83;;
44272;SDS011;29964;17.182;-96.766;2023-03-05T09:20:51;1.97;;;1.20;;
44272;SDS011;29964;17.182;-96.766;2023-03-05T09:23:18;4.07;;;1.57;;
44272;SDS011;29964;17.182;-96.766;2023-03-05T09:25:45;1.67;;;1.33;;
44272;SDS011;29964;17.182;-96.766;2023-03-05T09:28:11;3.30;;;2.23;;
44272;SDS011;29964;17.182;-96.766;2023-03-05T09:30:38;1.73;;;1.17;;
44272;SDS011;29964;17.182;-96.766;2023-03-05T09:33:05;1.67;;;1.13;;
44272;SDS011;29964;17.182;-96.766;2023-03-05T09:35:35;1.80;;;1.50;;
44272;SDS011;29964;17.182;-96.766;2023-03-05T09:38:02;2.23;;;1.47;;
44272;SDS011;29964;17.182;-96.766;2023-03-05T09:40:36;16.37;;;2.30;;
44272;SDS011;29964;17.182;-96.766;2023-03-05T09:46:01;2.70;;;2.10;;
44272;SDS011;29964;17.182;-96.766;2023-03-05T09:48:52;2.53;;;1.90;;
44272;SDS011;29964;17.182;-96.766;2023-03-05T09:51:24;3.13;;;2.17;;
44272;SDS011;29964;17.182;-96.766;2023-03-05T09:56:31;2.43;;;1.67;;
44272;SDS011;29964;17.182;-96.766;2023-03-05T09:59:04;2.27;;;1.70;;
44272;SDS011;29964;17.182;-96.766;2023-03-05T10:01:40;1.97;;;1.30;;
44272;SDS011;29964;17.182;-96.766;2023-03-05T10:06:35;3.07;;;2.10;;
44272;SDS011;29964;17.182;-96.766;2023-03-05T10:14:04;1.60;;;1.27;;
44272;SDS011;29964;17.182;-96.766;2023-03-05T10:25:16;2.25;;;1.52;;
44272;SDS011;29964;17.182;-96.766;2023-03-05T10:37:59;4.85;;;2.42;;
44272;SDS011;29964;17.182;-96.766;2023-03-05T10:47:54;2.20;;;1.60;;
44272;SDS011;29964;17.182;-96.766;2023-03-05T10:50:23;3.80;;;2.17;;
44272;SDS011;29964;17.182;-96.766;2023-03-05T10:53:34;3.77;;;2.40;;
44272;SDS011;29964;17.182;-96.766;2023-03-05T10:55:40;3.17;;;1.90;;
44272;SDS011;29964;17.182;-96.766;2023-03-05T10:58:10;8.67;;;2.23;;
44272;SDS011;29964;17.182;-96.766;2023-03-05T11:00:38;2.33;;;1.47;;
44272;SDS011;29964;17.182;-96.766;2023-03-05T11:03:06;3.60;;;1.63;;
44272;SDS011;29964;17.182;-96.766;2023-03-05T11:13:57;2.53;;;1.87;;
44272;SDS011;29964;17.182;-96.766;2023-03-05T11:16:28;2.53;;;2.00;;
44272;SDS011;29964;17.182;-96.766;2023-03-05T11:19:56;6.33;;;2.83;;
44272;SDS011;29964;17.182;-96.766;2023-03-05T11:24:43;4.40;;;1.47;;
44272;SDS011;29964;17.182;-96.766;2023-03-05T11:27:21;6.20;;;1.40;;
44272;SDS011;29964;17.182;-96.766;2023-03-05T11:29:55;2.78;;;2.08;;
44272;SDS011;29964;17.182;-96.766;2023-03-05T11:32:23;11.33;;;2.33;;
44272;SDS011;29964;17.182;-96.766;2023-03-05T11:34:51;2.00;;;1.60;;
44272;SDS011;29964;17.182;-96.766;2023-03-05T11:37:21;7.10;;;2.77;;
44272;SDS011;29964;17.182;-96.766;2023-03-05T11:39:47;6.20;;;2.13;;
44272;SDS011;29964;17.182;-96.766;2023-03-05T11:42:17;3.03;;;2.30;;
44272;SDS011;29964;17.182;-96.766;2023-03-05T11:44:50;2.97;;;2.13;;
44272;SDS011;29964;17.182;-96.766;2023-03-05T11:47:24;2.63;;;1.30;;
44272;SDS011;29964;17.182;-96.766;2023-03-05T11:49:53;2.70;;;1.63;;
44272;SDS011;29964;17.182;-96.766;2023-03-05T11:52:27;4.10;;;2.73;;
44272;SDS011;29964;17.182;-96.766;2023-03-05T11:57:35;3.67;;;2.00;;
44272;SDS011;29964;17.182;-96.766;2023-03-05T12:00:06;7.13;;;2.63;;
44272;SDS011;29964;17.182;-96.766;2023-03-05T12:02:36;6.60;;;2.10;;
44272;SDS011;29964;17.182;-96.766;2023-03-05T12:05:04;3.33;;;2.13;;
44272;SDS011;29964;17.182;-96.766;2023-03-05T12:07:38;2.60;;;1.90;;
44272;SDS011;29964;17.182;-96.766;2023-03-05T12:10:06;4.65;;;1.90;;
44272;SDS011;29964;17.182;-96.766;2023-03-05T12:12:45;2.57;;;1.70;;
44272;SDS011;29964;17.182;-96.766;2023-03-05T12:23:13;3.00;;;2.00;;
44272;SDS011;29964;17.182;-96.766;2023-03-05T12:25:48;2.43;;;1.90;;
44272;SDS011;29964;17.182;-96.766;2023-03-05T12:30:55;2.23;;;1.50;;
44272;SDS011;29964;17.182;-96.766;2023-03-05T12:33:36;8.73;;;3.43;;
44272;SDS011;29964;17.182;-96.766;2023-03-05T12:46:35;2.30;;;1.97;;
44272;SDS011;29964;17.182;-96.766;2023-03-05T12:51:53;5.40;;;2.07;;
44272;SDS011;29964;17.182;-96.766;2023-03-05T12:54:22;3.43;;;2.30;;
44272;SDS011;29964;17.182;-96.766;2023-03-05T12:56:50;3.20;;;2.20;;
44272;SDS011;29964;17.182;-96.766;2023-03-05T12:59:18;6.70;;;3.10;;
44272;SDS011;29964;17.182;-96.766;2023-03-05T13:01:51;3.87;;;2.27;;
44272;SDS011;29964;17.182;-96.766;2023-03-05T13:04:27;4.17;;;2.70;;
44272;SDS011;29964;17.182;-96.766;2023-03-05T13:06:59;5.22;;;2.47;;
44272;SDS011;29964;17.182;-96.766;2023-03-05T13:09:27;4.77;;;2.43;;
44272;SDS011;29964;17.182;-96.766;2023-03-05T13:11:56;5.77;;;2.77;;
44272;SDS011;29964;17.182;-96.766;2023-03-05T13:14:36;2.60;;;1.97;;
44272;SDS011;29964;17.182;-96.766;2023-03-05T13:19:49;8.32;;;3.33;;
44272;SDS011;29964;17.182;-96.766;2023-03-05T13:22:16;3.80;;;2.47;;
44272;SDS011;29964;17.182;-96.766;2023-03-05T13:24:43;2.77;;;2.13;;
44272;SDS011;29964;17.182;-96.766;2023-03-05T13:27:30;2.37;;;1.97;;
44272;SDS011;29964;17.182;-96.766;2023-03-05T13:29:57;2.13;;;1.87;;
44272;SDS011;29964;17.182;-96.766;2023-03-05T13:32:25;3.77;;;2.27;;
44272;SDS011;29964;17.182;-96.766;2023-03-05T13:34:54;4.03;;;2.70;;
44272;SDS011;29964;17.182;-96.766;2023-03-05T13:37:25;6.17;;;2.80;;
44272;SDS011;29964;17.182;-96.766;2023-03-05T13:40:00;6.00;;;3.03;;
44272;SDS011;29964;17.182;-96.766;2023-03-05T13:42:32;6.73;;;3.67;;
44272;SDS011;29964;17.182;-96.766;2023-03-05T13:45:00;4.43;;;2.43;;
44272;SDS011;29964;17.182;-96.766;2023-03-05T13:47:28;2.77;;;2.23;;
44272;SDS011;29964;17.182;-96.766;2023-03-05T13:49:56;5.43;;;3.30;;
44272;SDS011;29964;17.182;-96.766;2023-03-05T13:52:25;3.33;;;2.60;;
44272;SDS011;29964;17.182;-96.766;2023-03-05T13:54:54;4.70;;;2.63;;
44272;SDS011;29964;17.182;-96.766;2023-03-05T13:57:34;4.70;;;3.03;;
44272;SDS011;29964;17.182;-96.766;2023-03-05T14:00:03;7.60;;;3.70;;
44272;SDS011;29964;17.182;-96.766;2023-03-05T14:02:30;4.43;;;3.23;;
44272;SDS011;29964;17.182;-96.766;2023-03-05T14:04:57;3.60;;;3.10;;
44272;SDS011;29964;17.182;-96.766;2023-03-05T14:07:57;5.70;;;3.93;;
44272;SDS011;29964;17.182;-96.766;2023-03-05T14:10:27;7.73;;;4.53;;
44272;SDS011;29964;17.182;-96.766;2023-03-05T14:12:54;7.87;;;4.23;;
44272;SDS011;29964;17.182;-96.766;2023-03-05T14:17:49;12.47;;;4.13;;
44272;SDS011;29964;17.182;-96.766;2023-03-05T14:20:23;5.37;;;3.63;;
44272;SDS011;29964;17.182;-96.766;2023-03-05T14:22:54;10.53;;;3.73;;
44272;SDS011;29964;17.182;-96.766;2023-03-05T14:27:51;5.23;;;3.50;;
44272;SDS011;29964;17.182;-96.766;2023-03-05T14:30:22;9.17;;;2.93;;
44272;SDS011;29964;17.182;-96.766;2023-03-05T14:32:49;5.63;;;2.70;;
44272;SDS011;29964;17.182;-96.766;2023-03-05T14:35:18;12.57;;;2.90;;
44272;SDS011;29964;17.182;-96.766;2023-03-05T14:37:46;3.70;;;2.33;;
44272;SDS011;29964;17.182;-96.766;2023-03-05T14:45:12;4.63;;;2.77;;
44272;SDS011;29964;17.182;-96.766;2023-03-05T14:47:39;5.27;;;3.27;;
44272;SDS011;29964;17.182;-96.766;2023-03-05T14:50:06;8.00;;;4.10;;
44272;SDS011;29964;17.182;-96.766;2023-03-05T14:52:33;9.63;;;4.93;;
44272;SDS011;29964;17.182;-96.766;2023-03-05T14:55:00;7.97;;;3.47;;
44272;SDS011;29964;17.182;-96.766;2023-03-05T14:57:27;4.97;;;3.27;;
44272;SDS011;29964;17.182;-96.766;2023-03-05T14:59:56;14.43;;;5.23;;
44272;SDS011;29964;17.182;-96.766;2023-03-05T15:05:27;9.10;;;4.53;;
44272;SDS011;29964;17.182;-96.766;2023-03-05T15:53:47;24.77;;;4.07;;
44272;SDS011;29964;17.182;-96.766;2023-03-05T15:56:14;5.70;;;3.85;;
44272;SDS011;29964;17.182;-96.766;2023-03-05T15:58:41;13.13;;;4.55;;
44272;SDS011;29964;17.182;-96.766;2023-03-05T16:01:09;7.55;;;3.75;;
44272;SDS011;29964;17.182;-96.766;2023-03-05T16:03:36;18.50;;;3.55;;
44272;SDS011;29964;17.182;-96.766;2023-03-05T16:06:03;4.43;;;2.75;;
44272;SDS011;29964;17.182;-96.766;2023-03-05T16:08:33;3.58;;;2.45;;
44272;SDS011;29964;17.182;-96.766;2023-03-05T16:11:01;3.75;;;2.45;;
44272;SDS011;29964;17.182;-96.766;2023-03-05T16:13:28;9.13;;;3.38;;
44272;SDS011;29964;17.182;-96.766;2023-03-05T16:15:55;16.83;;;2.63;;
44272;SDS011;29964;17.182;-96.766;2023-03-05T16:18:23;5.65;;;2.80;;
44272;SDS011;29964;17.182;-96.766;2023-03-05T16:20:50;6.85;;;2.35;;
44272;SDS011;29964;17.182;-96.766;2023-03-05T16:23:17;5.93;;;2.63;;
44272;SDS011;29964;17.182;-96.766;2023-03-05T16:25:44;3.60;;;2.83;;
44272;SDS011;29964;17.182;-96.766;2023-03-05T16:28:10;3.05;;;2.28;;
44272;SDS011;29964;17.182;-96.766;2023-03-05T16:30:37;4.82;;;2.55;;
44272;SDS011;29964;17.182;-96.766;2023-03-05T16:33:04;2.78;;;1.92;;
44272;SDS011;29964;17.182;-96.766;2023-03-05T16:35:31;6.15;;;2.45;;
44272;SDS011;29964;17.182;-96.766;2023-03-05T16:37:58;3.53;;;1.98;;
44272;SDS011;29964;17.182;-96.766;2023-03-05T16:40:25;2.70;;;1.55;;
44272;SDS011;29964;17.182;-96.766;2023-03-05T16:42:51;3.85;;;1.90;;
44272;SDS011;29964;17.182;-96.766;2023-03-05T16:45:18;14.32;;;2.33;;
44272;SDS011;29964;17.182;-96.766;2023-03-05T16:47:45;1.33;;;1.02;;
44272;SDS011;29964;17.182;-96.766;2023-03-05T16:50:11;9.43;;;1.90;;